sensor_id;sensor_type;location;lat;lon;timestamp;pressure;altitude;pressure_sealevel;temperature;humidity
52949;BME280;38812;50.942;3.644;2022-07-23T00:02:21;101493.09;;;13.77;100.00
52949;BME280;38812;50.942;3.644;2022-07-23T00:04:46;101518.63;;;13.78;100.00
52949;BME280;38812;50.942;3.644;2022-07-23T00:07:11;101506.44;;;13.71;100.00
52949;BME280;38812;50.942;3.644;2022-07-23T00:09:37;101482.22;;;13.54;100.00
52949;BME280;38812;50.942;3.644;2022-07-23T00:12:03;101502.97;;;13.69;100.00
52949;BME280;38812;50.942;3.644;2022-07-23T00:14:28;101516.34;;;13.63;100.00
52949;BME280;38812;50.942;3.644;2022-07-23T00:16:53;101490.44;;;13.42;100.00
52949;BME280;38812;50.942;3.644;2022-07-23T00:19:19;101490.34;;;13.45;100.00
52949;BME280;38812;50.942;3.644;2022-07-23T00:21:44;101467.78;;;13.31;100.00
52949;BME280;38812;50.942;3.644;2022-07-23T00:24:09;101482.50;;;13.42;100.00
52949;BME280;38812;50.942;3.644;2022-07-23T00:26:35;101417.13;;;13.14;100.00
52949;BME280;38812;50.942;3.644;2022-07-23T00:29:00;101473.63;;;13.44;100.00
52949;BME280;38812;50.942;3.644;2022-07-23T00:31:25;101477.06;;;13.48;100.00
52949;BME280;38812;50.942;3.644;2022-07-23T00:33:52;101485.94;;;13.45;100.00
52949;BME280;38812;50.942;3.644;2022-07-23T00:36:22;101430.81;;;12.91;100.00
52949;BME280;38812;50.942;3.644;2022-07-23T00:38:48;101462.06;;;13.10;100.00
52949;BME280;38812;50.942;3.644;2022-07-23T00:41:14;101483.69;;;13.27;100.00
52949;BME280;38812;50.942;3.644;2022-07-23T00:43:39;101474.91;;;13.26;100.00
52949;BME280;38812;50.942;3.644;2022-07-23T00:46:04;101473.97;;;13.29;100.00
52949;BME280;38812;50.942;3.644;2022-07-23T00:48:30;101447.91;;;13.15;100.00
52949;BME280;38812;50.942;3.644;2022-07-23T00:50:55;101448.69;;;13.20;100.00
52949;BME280;38812;50.942;3.644;2022-07-23T00:53:21;101485.31;;;13.34;100.00
52949;BME280;38812;50.942;3.644;2022-07-23T00:55:47;101474.13;;;13.21;100.00
52949;BME280;38812;50.942;3.644;2022-07-23T00:58:12;101473.41;;;13.16;100.00
52949;BME280;38812;50.942;3.644;2022-07-23T01:00:38;101436.56;;;13.10;100.00
52949;BME280;38812;50.942;3.644;2022-07-23T01:03:04;101474.06;;;13.24;100.00
52949;BME280;38812;50.942;3.644;2022-07-23T01:05:29;101443.47;;;13.17;100.00
52949;BME280;38812;50.942;3.644;2022-07-23T01:07:54;101477.44;;;13.32;100.00
52949;BME280;38812;50.942;3.644;2022-07-23T01:10:20;101446.88;;;13.21;100.00
52949;BME280;38812;50.942;3.644;2022-07-23T01:12:59;101453.09;;;13.20;100.00
52949;BME280;38812;50.942;3.644;2022-07-23T01:15:24;101447.91;;;13.14;100.00
52949;BME280;38812;50.942;3.644;2022-07-23T01:17:50;101451.47;;;13.11;100.00
52949;BME280;38812;50.942;3.644;2022-07-23T01:20:16;101421.97;;;12.94;100.00
52949;BME280;38812;50.942;3.644;2022-07-23T01:22:42;101396.09;;;12.71;100.00
52949;BME280;38812;50.942;3.644;2022-07-23T01:25:08;101447.63;;;12.86;100.00
52949;BME280;38812;50.942;3.644;2022-07-23T01:27:34;101444.06;;;12.88;100.00
52949;BME280;38812;50.942;3.644;2022-07-23T01:30:00;101422.25;;;12.80;100.00
52949;BME280;38812;50.942;3.644;2022-07-23T01:32:26;101439.78;;;12.83;100.00
52949;BME280;38812;50.942;3.644;2022-07-23T01:34:51;101429.44;;;12.74;100.00
52949;BME280;38812;50.942;3.644;2022-07-23T01:37:17;101456.56;;;12.79;100.00
52949;BME280;38812;50.942;3.644;2022-07-23T01:39:42;101430.34;;;12.73;100.00
52949;BME280;38812;50.942;3.644;2022-07-23T01:42:08;101459.84;;;12.90;100.00
52949;BME280;38812;50.942;3.644;2022-07-23T01:44:33;101462.84;;;12.73;100.00
52949;BME280;38812;50.942;3.644;2022-07-23T01:46:59;101442.03;;;12.58;100.00
52949;BME280;38812;50.942;3.644;2022-07-23T01:49:24;101455.13;;;12.62;100.00
52949;BME280;38812;50.942;3.644;2022-07-23T01:51:49;101408.22;;;12.35;100.00
52949;BME280;38812;50.942;3.644;2022-07-23T01:54:35;101425.66;;;12.42;100.00
52949;BME280;38812;50.942;3.644;2022-07-23T01:57:01;101445.78;;;12.48;100.00
52949;BME280;38812;50.942;3.644;2022-07-23T01:59:27;101435.41;;;12.39;100.00
52949;BME280;38812;50.942;3.644;2022-07-23T02:01:53;101400.56;;;12.24;100.00
52949;BME280;38812;50.942;3.644;2022-07-23T02:04:22;101433.53;;;12.45;100.00
52949;BME280;38812;50.942;3.644;2022-07-23T02:06:48;101439.56;;;12.50;100.00
52949;BME280;38812;50.942;3.644;2022-07-23T02:09:14;101409.06;;;12.37;100.00
52949;BME280;38812;50.942;3.644;2022-07-23T02:11:40;101431.59;;;12.55;100.00
52949;BME280;38812;50.942;3.644;2022-07-23T02:14:06;101376.06;;;12.18;100.00
52949;BME280;38812;50.942;3.644;2022-07-23T02:16:31;101400.56;;;12.24;100.00
52949;BME280;38812;50.942;3.644;2022-07-23T02:18:57;101426.75;;;12.32;100.00
52949;BME280;38812;50.942;3.644;2022-07-23T02:21:22;101446.84;;;12.36;100.00
52949;BME280;38812;50.942;3.644;2022-07-23T02:23:48;101449.16;;;12.54;100.00
52949;BME280;38812;50.942;3.644;2022-07-23T02:26:13;101461.34;;;12.60;100.00
52949;BME280;38812;50.942;3.644;2022-07-23T02:28:38;101463.28;;;12.50;100.00
52949;BME280;38812;50.942;3.644;2022-07-23T02:31:04;101458.88;;;12.52;100.00
52949;BME280;38812;50.942;3.644;2022-07-23T02:33:30;101463.88;;;12.64;100.00
52949;BME280;38812;50.942;3.644;2022-07-23T02:35:56;101451.84;;;12.51;100.00
52949;BME280;38812;50.942;3.644;2022-07-23T02:38:21;101437.19;;;12.36;100.00
52949;BME280;38812;50.942;3.644;2022-07-23T02:40:46;101423.41;;;12.22;100.00
52949;BME280;38812;50.942;3.644;2022-07-23T02:43:12;101429.72;;;12.14;100.00
52949;BME280;38812;50.942;3.644;2022-07-23T02:45:37;101462.09;;;12.20;100.00
52949;BME280;38812;50.942;3.644;2022-07-23T02:48:03;101461.41;;;12.11;100.00
52949;BME280;38812;50.942;3.644;2022-07-23T02:50:28;101470.97;;;12.13;100.00
52949;BME280;38812;50.942;3.644;2022-07-23T02:52:54;101466.72;;;12.08;100.00
52949;BME280;38812;50.942;3.644;2022-07-23T02:55:19;101454.69;;;11.91;100.00
52949;BME280;38812;50.942;3.644;2022-07-23T02:57:44;101449.41;;;11.91;100.00
52949;BME280;38812;50.942;3.644;2022-07-23T03:00:10;101478.22;;;12.02;100.00
52949;BME280;38812;50.942;3.644;2022-07-23T03:02:36;101428.34;;;11.91;100.00
52949;BME280;38812;50.942;3.644;2022-07-23T03:05:01;101456.22;;;12.05;100.00
52949;BME280;38812;50.942;3.644;2022-07-23T03:07:27;101458.28;;;11.87;100.00
52949;BME280;38812;50.942;3.644;2022-07-23T03:09:52;101463.19;;;12.09;100.00
52949;BME280;38812;50.942;3.644;2022-07-23T03:12:18;101467.72;;;11.99;100.00
52949;BME280;38812;50.942;3.644;2022-07-23T03:14:43;101471.44;;;11.87;100.00
52949;BME280;38812;50.942;3.644;2022-07-23T03:17:09;101480.72;;;12.10;100.00
52949;BME280;38812;50.942;3.644;2022-07-23T03:19:34;101487.56;;;12.20;100.00
52949;BME280;38812;50.942;3.644;2022-07-23T03:22:00;101437.28;;;11.84;100.00
52949;BME280;38812;50.942;3.644;2022-07-23T03:24:25;101470.44;;;11.94;100.00
52949;BME280;38812;50.942;3.644;2022-07-23T03:27:10;101486.00;;;12.10;100.00
52949;BME280;38812;50.942;3.644;2022-07-23T03:29:36;101493.00;;;12.11;100.00
52949;BME280;38812;50.942;3.644;2022-07-23T03:32:03;101468.88;;;11.84;100.00
52949;BME280;38812;50.942;3.644;2022-07-23T03:34:28;101467.22;;;11.77;100.00
52949;BME280;38812;50.942;3.644;2022-07-23T03:36:54;101496.94;;;11.85;100.00
52949;BME280;38812;50.942;3.644;2022-07-23T03:39:19;101477.75;;;11.74;100.00
52949;BME280;38812;50.942;3.644;2022-07-23T03:41:44;101507.34;;;11.91;100.00
52949;BME280;38812;50.942;3.644;2022-07-23T03:44:10;101498.75;;;11.82;100.00
52949;BME280;38812;50.942;3.644;2022-07-23T03:46:35;101525.13;;;11.77;100.00
52949;BME280;38812;50.942;3.644;2022-07-23T03:49:00;101518.25;;;11.67;100.00
52949;BME280;38812;50.942;3.644;2022-07-23T03:51:26;101507.75;;;11.64;100.00
52949;BME280;38812;50.942;3.644;2022-07-23T03:53:51;101514.59;;;11.77;100.00
52949;BME280;38812;50.942;3.644;2022-07-23T03:56:16;101517.16;;;11.82;100.00
52949;BME280;38812;50.942;3.644;2022-07-23T03:58:42;101467.56;;;11.51;100.00
52949;BME280;38812;50.942;3.644;2022-07-23T04:01:07;101518.97;;;11.75;100.00
52949;BME280;38812;50.942;3.644;2022-07-23T04:03:33;101538.22;;;11.82;100.00
52949;BME280;38812;50.942;3.644;2022-07-23T04:05:58;101540.94;;;11.73;100.00
52949;BME280;38812;50.942;3.644;2022-07-23T04:08:23;101481.84;;;11.37;100.00
52949;BME280;38812;50.942;3.644;2022-07-23T04:10:50;101526.16;;;11.65;100.00
52949;BME280;38812;50.942;3.644;2022-07-23T04:13:16;101458.13;;;11.40;100.00
52949;BME280;38812;50.942;3.644;2022-07-23T04:15:41;101492.78;;;11.69;100.00
52949;BME280;38812;50.942;3.644;2022-07-23T04:18:06;101519.56;;;11.95;100.00
52949;BME280;38812;50.942;3.644;2022-07-23T04:20:33;101522.97;;;12.04;100.00
52949;BME280;38812;50.942;3.644;2022-07-23T04:22:58;101525.22;;;12.25;100.00
52949;BME280;38812;50.942;3.644;2022-07-23T04:25:23;101511.84;;;12.37;100.00
52949;BME280;38812;50.942;3.644;2022-07-23T04:27:49;101509.91;;;12.47;100.00
52949;BME280;38812;50.942;3.644;2022-07-23T04:30:14;101486.22;;;12.45;100.00
52949;BME280;38812;50.942;3.644;2022-07-23T04:32:40;101466.03;;;12.44;100.00
52949;BME280;38812;50.942;3.644;2022-07-23T04:35:05;101505.09;;;12.68;100.00
52949;BME280;38812;50.942;3.644;2022-07-23T04:37:31;101503.47;;;12.61;100.00
52949;BME280;38812;50.942;3.644;2022-07-23T04:39:56;101515.56;;;12.73;100.00
52949;BME280;38812;50.942;3.644;2022-07-23T04:42:21;101475.63;;;12.48;100.00
52949;BME280;38812;50.942;3.644;2022-07-23T04:44:47;101495.72;;;12.55;100.00
52949;BME280;38812;50.942;3.644;2022-07-23T04:47:12;101525.28;;;12.71;100.00
52949;BME280;38812;50.942;3.644;2022-07-23T04:49:37;101538.28;;;12.79;100.00
52949;BME280;38812;50.942;3.644;2022-07-23T04:52:03;101490.69;;;12.40;100.00
52949;BME280;38812;50.942;3.644;2022-07-23T04:54:28;101534.16;;;12.65;100.00
52949;BME280;38812;50.942;3.644;2022-07-23T04:56:54;101562.84;;;12.82;100.00
52949;BME280;38812;50.942;3.644;2022-07-23T04:59:19;101564.66;;;12.79;100.00
52949;BME280;38812;50.942;3.644;2022-07-23T05:01:44;101531.38;;;12.73;100.00
52949;BME280;38812;50.942;3.644;2022-07-23T05:04:10;101551.47;;;12.79;100.00
52949;BME280;38812;50.942;3.644;2022-07-23T05:06:35;101538.09;;;12.89;100.00
52949;BME280;38812;50.942;3.644;2022-07-23T05:09:00;101509.09;;;12.89;100.00
52949;BME280;38812;50.942;3.644;2022-07-23T05:11:26;101543.72;;;13.17;100.00
52949;BME280;38812;50.942;3.644;2022-07-23T05:13:51;101529.38;;;13.30;100.00
52949;BME280;38812;50.942;3.644;2022-07-23T05:16:17;101568.00;;;13.34;100.00
52949;BME280;38812;50.942;3.644;2022-07-23T05:18:42;101565.97;;;13.46;100.00
52949;BME280;38812;50.942;3.644;2022-07-23T05:21:07;101552.78;;;13.46;100.00
52949;BME280;38812;50.942;3.644;2022-07-23T05:23:33;101587.44;;;13.70;100.00
52949;BME280;38812;50.942;3.644;2022-07-23T05:25:58;101599.78;;;13.70;100.00
52949;BME280;38812;50.942;3.644;2022-07-23T05:28:23;101527.25;;;13.46;100.00
52949;BME280;38812;50.942;3.644;2022-07-23T05:30:49;101585.75;;;14.06;100.00
52949;BME280;38812;50.942;3.644;2022-07-23T05:33:14;101565.63;;;14.01;100.00
52949;BME280;38812;50.942;3.644;2022-07-23T05:35:40;101597.84;;;14.52;100.00
52949;BME280;38812;50.942;3.644;2022-07-23T05:38:05;101613.56;;;15.23;100.00
52949;BME280;38812;50.942;3.644;2022-07-23T05:40:30;101751.47;;;16.95;100.00
52949;BME280;38812;50.942;3.644;2022-07-23T05:42:57;101818.47;;;18.06;100.00
52949;BME280;38812;50.942;3.644;2022-07-23T05:45:22;101825.16;;;19.08;100.00
52949;BME280;38812;50.942;3.644;2022-07-23T05:47:48;101836.44;;;18.23;100.00
52949;BME280;38812;50.942;3.644;2022-07-23T05:50:15;101797.19;;;17.05;100.00
52949;BME280;38812;50.942;3.644;2022-07-23T05:52:41;101773.94;;;16.56;100.00
52949;BME280;38812;50.942;3.644;2022-07-23T05:55:08;101750.38;;;16.17;100.00
52949;BME280;38812;50.942;3.644;2022-07-23T05:57:35;101755.91;;;17.21;100.00
52949;BME280;38812;50.942;3.644;2022-07-23T06:00:01;101764.56;;;17.53;100.00
52949;BME280;38812;50.942;3.644;2022-07-23T06:02:26;101803.78;;;18.42;100.00
52949;BME280;38812;50.942;3.644;2022-07-23T06:04:52;101797.94;;;18.56;100.00
52949;BME280;38812;50.942;3.644;2022-07-23T06:07:17;101819.81;;;18.86;100.00
52949;BME280;38812;50.942;3.644;2022-07-23T06:09:42;101828.94;;;19.24;100.00
52949;BME280;38812;50.942;3.644;2022-07-23T06:12:08;101832.91;;;19.14;100.00
52949;BME280;38812;50.942;3.644;2022-07-23T06:14:33;101816.41;;;18.37;100.00
52949;BME280;38812;50.942;3.644;2022-07-23T06:16:59;101776.97;;;18.25;100.00
52949;BME280;38812;50.942;3.644;2022-07-23T06:19:25;101780.47;;;18.49;100.00
52949;BME280;38812;50.942;3.644;2022-07-23T06:21:50;101802.91;;;18.42;100.00
52949;BME280;38812;50.942;3.644;2022-07-23T06:24:15;101778.19;;;18.40;100.00
52949;BME280;38812;50.942;3.644;2022-07-23T06:26:41;101811.25;;;18.33;100.00
52949;BME280;38812;50.942;3.644;2022-07-23T06:29:06;101800.09;;;18.23;100.00
52949;BME280;38812;50.942;3.644;2022-07-23T06:31:32;101752.63;;;18.12;100.00
52949;BME280;38812;50.942;3.644;2022-07-23T06:33:58;101807.44;;;18.40;100.00
52949;BME280;38812;50.942;3.644;2022-07-23T06:36:24;101812.19;;;18.32;100.00
52949;BME280;38812;50.942;3.644;2022-07-23T06:38:49;101812.25;;;18.30;100.00
52949;BME280;38812;50.942;3.644;2022-07-23T06:41:14;101818.09;;;18.17;100.00
52949;BME280;38812;50.942;3.644;2022-07-23T06:43:40;101807.44;;;18.17;100.00
52949;BME280;38812;50.942;3.644;2022-07-23T06:46:05;101813.59;;;18.40;100.00
52949;BME280;38812;50.942;3.644;2022-07-23T06:48:34;101800.03;;;18.48;100.00
52949;BME280;38812;50.942;3.644;2022-07-23T06:51:02;101795.06;;;18.39;100.00
52949;BME280;38812;50.942;3.644;2022-07-23T06:53:28;101803.78;;;18.42;100.00
52949;BME280;38812;50.942;3.644;2022-07-23T06:55:53;101790.88;;;18.55;100.00
52949;BME280;38812;50.942;3.644;2022-07-23T06:58:19;101811.47;;;18.73;100.00
52949;BME280;38812;50.942;3.644;2022-07-23T07:00:45;101839.16;;;18.91;100.00
52949;BME280;38812;50.942;3.644;2022-07-23T07:03:10;101844.66;;;19.08;100.00
52949;BME280;38812;50.942;3.644;2022-07-23T07:05:36;101823.00;;;18.96;100.00
52949;BME280;38812;50.942;3.644;2022-07-23T07:08:02;101820.63;;;19.10;100.00
52949;BME280;38812;50.942;3.644;2022-07-23T07:10:27;101844.03;;;19.45;100.00
52949;BME280;38812;50.942;3.644;2022-07-23T07:12:52;101842.03;;;19.50;100.00
52949;BME280;38812;50.942;3.644;2022-07-23T07:15:18;101867.16;;;19.87;100.00
52949;BME280;38812;50.942;3.644;2022-07-23T07:17:43;101822.41;;;19.73;100.00
52949;BME280;38812;50.942;3.644;2022-07-23T07:20:09;101856.75;;;20.20;100.00
52949;BME280;38812;50.942;3.644;2022-07-23T07:22:35;101868.09;;;20.25;100.00
52949;BME280;38812;50.942;3.644;2022-07-23T07:25:01;101871.72;;;20.63;100.00
52949;BME280;38812;50.942;3.644;2022-07-23T07:27:26;101802.03;;;20.11;100.00
52949;BME280;38812;50.942;3.644;2022-07-23T07:29:51;101892.28;;;20.99;100.00
52949;BME280;38812;50.942;3.644;2022-07-23T07:32:17;101887.50;;;21.24;100.00
52949;BME280;38812;50.942;3.644;2022-07-23T07:34:42;101904.47;;;21.23;100.00
52949;BME280;38812;50.942;3.644;2022-07-23T07:37:07;101889.53;;;21.72;100.00
52949;BME280;38812;50.942;3.644;2022-07-23T07:39:33;101907.22;;;21.75;100.00
52949;BME280;38812;50.942;3.644;2022-07-23T07:41:58;101906.75;;;21.67;100.00
52949;BME280;38812;50.942;3.644;2022-07-23T07:44:24;101888.81;;;21.51;100.00
52949;BME280;38812;50.942;3.644;2022-07-23T07:46:49;101900.94;;;21.59;100.00
52949;BME280;38812;50.942;3.644;2022-07-23T07:49:14;101895.25;;;21.47;100.00
52949;BME280;38812;50.942;3.644;2022-07-23T07:51:42;101895.06;;;21.33;100.00
52949;BME280;38812;50.942;3.644;2022-07-23T07:54:07;101915.53;;;21.51;100.00
52949;BME280;38812;50.942;3.644;2022-07-23T07:56:33;101899.78;;;21.28;100.00
52949;BME280;38812;50.942;3.644;2022-07-23T07:58:58;101897.09;;;21.28;100.00
52949;BME280;38812;50.942;3.644;2022-07-23T08:01:23;101919.56;;;21.24;100.00
52949;BME280;38812;50.942;3.644;2022-07-23T08:03:49;101920.56;;;21.40;100.00
52949;BME280;38812;50.942;3.644;2022-07-23T08:06:14;101925.00;;;21.59;100.00
52949;BME280;38812;50.942;3.644;2022-07-23T08:08:40;101925.72;;;21.62;100.00
52949;BME280;38812;50.942;3.644;2022-07-23T08:11:05;101925.72;;;21.62;100.00
52949;BME280;38812;50.942;3.644;2022-07-23T08:13:30;101914.31;;;21.59;100.00
52949;BME280;38812;50.942;3.644;2022-07-23T08:15:56;101928.84;;;21.70;100.00
52949;BME280;38812;50.942;3.644;2022-07-23T08:18:21;101931.50;;;22.06;100.00
52949;BME280;38812;50.942;3.644;2022-07-23T08:20:47;101909.56;;;22.33;100.00
52949;BME280;38812;50.942;3.644;2022-07-23T08:23:12;101894.84;;;22.41;100.00
52949;BME280;38812;50.942;3.644;2022-07-23T08:25:40;101910.13;;;22.72;100.00
52949;BME280;38812;50.942;3.644;2022-07-23T08:28:10;101898.94;;;22.64;100.00
52949;BME280;38812;50.942;3.644;2022-07-23T08:30:37;101904.78;;;23.04;100.00
52949;BME280;38812;50.942;3.644;2022-07-23T08:33:06;101930.44;;;23.39;100.00
52949;BME280;38812;50.942;3.644;2022-07-23T08:35:47;101900.75;;;23.74;100.00
52949;BME280;38812;50.942;3.644;2022-07-23T08:38:17;101931.72;;;23.64;100.00
52949;BME280;38812;50.942;3.644;2022-07-23T08:40:45;101935.56;;;23.60;100.00
52949;BME280;38812;50.942;3.644;2022-07-23T08:43:14;101932.28;;;24.14;100.00
52949;BME280;38812;50.942;3.644;2022-07-23T08:45:42;101921.22;;;24.05;100.00
52949;BME280;38812;50.942;3.644;2022-07-23T08:48:11;101921.69;;;24.41;96.93
52949;BME280;38812;50.942;3.644;2022-07-23T08:50:37;101940.00;;;24.49;95.26
52949;BME280;38812;50.942;3.644;2022-07-23T08:53:06;101948.44;;;24.71;98.93
52949;BME280;38812;50.942;3.644;2022-07-23T08:55:32;101893.09;;;24.83;93.95
52949;BME280;38812;50.942;3.644;2022-07-23T08:57:57;101925.03;;;24.87;97.85
52949;BME280;38812;50.942;3.644;2022-07-23T09:00:23;101935.75;;;25.30;96.23
52949;BME280;38812;50.942;3.644;2022-07-23T09:02:49;101937.66;;;25.28;91.94
52949;BME280;38812;50.942;3.644;2022-07-23T09:05:15;101934.59;;;25.20;82.86
52949;BME280;38812;50.942;3.644;2022-07-23T09:10:28;101903.78;;;25.38;82.62
52949;BME280;38812;50.942;3.644;2022-07-23T09:12:53;101911.69;;;25.81;76.50
52949;BME280;38812;50.942;3.644;2022-07-23T09:15:19;101888.41;;;26.19;79.40
52949;BME280;38812;50.942;3.644;2022-07-23T09:17:44;101910.81;;;26.58;70.50
52949;BME280;38812;50.942;3.644;2022-07-23T09:20:15;101942.47;;;26.67;69.93
52949;BME280;38812;50.942;3.644;2022-07-23T09:22:45;101918.28;;;27.04;69.88
52949;BME280;38812;50.942;3.644;2022-07-23T09:25:14;101930.56;;;27.08;68.94
52949;BME280;38812;50.942;3.644;2022-07-23T09:27:55;101919.13;;;26.91;69.48
52949;BME280;38812;50.942;3.644;2022-07-23T09:30:23;101938.34;;;27.84;62.63
52949;BME280;38812;50.942;3.644;2022-07-23T09:33:11;101943.31;;;28.01;61.81
52949;BME280;38812;50.942;3.644;2022-07-23T09:35:54;101942.63;;;27.15;56.77
52949;BME280;38812;50.942;3.644;2022-07-23T09:38:22;101941.28;;;26.96;58.19
52949;BME280;38812;50.942;3.644;2022-07-23T09:41:11;101927.84;;;27.20;59.70
52949;BME280;38812;50.942;3.644;2022-07-23T09:43:37;101942.34;;;27.67;61.31
52949;BME280;38812;50.942;3.644;2022-07-23T09:46:21;101953.00;;;27.92;56.92
52949;BME280;38812;50.942;3.644;2022-07-23T09:48:50;101939.84;;;28.23;58.42
52949;BME280;38812;50.942;3.644;2022-07-23T09:51:17;101952.16;;;28.03;57.13
52949;BME280;38812;50.942;3.644;2022-07-23T09:53:54;101906.47;;;28.00;56.26
52949;BME280;38812;50.942;3.644;2022-07-23T09:56:20;101925.19;;;27.55;60.45
52949;BME280;38812;50.942;3.644;2022-07-23T09:58:51;101953.41;;;27.75;58.72
52949;BME280;38812;50.942;3.644;2022-07-23T10:01:27;101950.31;;;27.69;61.02
52949;BME280;38812;50.942;3.644;2022-07-23T10:03:52;101950.69;;;27.51;62.86
52949;BME280;38812;50.942;3.644;2022-07-23T10:06:18;101926.06;;;26.95;62.12
52949;BME280;38812;50.942;3.644;2022-07-23T10:08:47;101933.84;;;26.75;66.38
52949;BME280;38812;50.942;3.644;2022-07-23T10:11:15;101947.72;;;26.05;66.84
52949;BME280;38812;50.942;3.644;2022-07-23T10:13:42;101944.88;;;26.59;70.17
52949;BME280;38812;50.942;3.644;2022-07-23T10:16:14;101936.84;;;27.32;65.00
52949;BME280;38812;50.942;3.644;2022-07-23T10:18:39;101929.22;;;26.64;67.71
52949;BME280;38812;50.942;3.644;2022-07-23T10:21:07;101936.19;;;26.92;68.93
52949;BME280;38812;50.942;3.644;2022-07-23T10:23:37;101932.41;;;27.07;66.88
52949;BME280;38812;50.942;3.644;2022-07-23T10:26:37;101937.66;;;27.21;64.92
52949;BME280;38812;50.942;3.644;2022-07-23T10:37:17;101938.75;;;27.90;59.40
52949;BME280;38812;50.942;3.644;2022-07-23T10:40:09;101931.19;;;28.07;56.66
52949;BME280;38812;50.942;3.644;2022-07-23T10:42:35;101920.09;;;28.56;55.25
52949;BME280;38812;50.942;3.644;2022-07-23T10:45:01;101931.63;;;29.14;56.63
52949;BME280;38812;50.942;3.644;2022-07-23T10:47:46;101933.22;;;28.60;53.66
52949;BME280;38812;50.942;3.644;2022-07-23T10:53:16;101928.34;;;28.88;53.22
52949;BME280;38812;50.942;3.644;2022-07-23T10:55:52;101923.41;;;28.82;51.67
52949;BME280;38812;50.942;3.644;2022-07-23T10:58:20;101913.56;;;28.58;52.17
52949;BME280;38812;50.942;3.644;2022-07-23T11:00:46;101928.34;;;28.88;53.58
52949;BME280;38812;50.942;3.644;2022-07-23T11:03:31;101931.34;;;29.28;53.25
52949;BME280;38812;50.942;3.644;2022-07-23T11:05:57;101926.13;;;29.47;49.48
52949;BME280;38812;50.942;3.644;2022-07-23T11:08:23;101924.66;;;29.75;50.12
52949;BME280;38812;50.942;3.644;2022-07-23T11:13:27;101921.63;;;30.00;48.52
52949;BME280;38812;50.942;3.644;2022-07-23T11:32:28;101909.59;;;27.48;52.18
52949;BME280;38812;50.942;3.644;2022-07-23T11:34:53;101909.56;;;28.07;53.06
52949;BME280;38812;50.942;3.644;2022-07-23T11:37:35;101912.50;;;28.15;51.46
52949;BME280;38812;50.942;3.644;2022-07-23T11:40:03;101911.22;;;28.20;54.03
52949;BME280;38812;50.942;3.644;2022-07-23T11:42:29;101908.66;;;28.63;51.96
52949;BME280;38812;50.942;3.644;2022-07-23T11:44:55;101906.94;;;28.40;52.81
52949;BME280;38812;50.942;3.644;2022-07-23T11:47:23;101912.09;;;28.32;50.83
52949;BME280;38812;50.942;3.644;2022-07-23T11:52:19;101909.41;;;28.43;50.41
52949;BME280;38812;50.942;3.644;2022-07-23T11:54:49;101906.19;;;28.27;51.21
52949;BME280;38812;50.942;3.644;2022-07-23T11:57:15;101884.28;;;28.08;52.20
52949;BME280;38812;50.942;3.644;2022-07-23T11:59:40;101890.78;;;28.16;52.86
52949;BME280;38812;50.942;3.644;2022-07-23T12:02:07;101895.88;;;28.65;52.59
52949;BME280;38812;50.942;3.644;2022-07-23T12:07:32;101866.03;;;28.45;51.35
52949;BME280;38812;50.942;3.644;2022-07-23T12:12:41;101889.88;;;28.51;52.05
52949;BME280;38812;50.942;3.644;2022-07-23T12:15:07;101889.22;;;27.79;52.86
52949;BME280;38812;50.942;3.644;2022-07-23T12:17:36;101884.38;;;27.36;55.14
52949;BME280;38812;50.942;3.644;2022-07-23T12:20:05;101858.91;;;27.51;54.82
52949;BME280;38812;50.942;3.644;2022-07-23T12:22:45;101867.63;;;27.79;54.23
52949;BME280;38812;50.942;3.644;2022-07-23T12:25:23;101889.25;;;28.25;54.07
52949;BME280;38812;50.942;3.644;2022-07-23T12:28:08;101884.69;;;28.37;54.11
52949;BME280;38812;50.942;3.644;2022-07-23T12:30:41;101884.56;;;28.83;51.96
52949;BME280;38812;50.942;3.644;2022-07-23T12:33:14;101879.41;;;29.34;51.69
52949;BME280;38812;50.942;3.644;2022-07-23T12:35:45;101867.16;;;29.19;50.88
52949;BME280;38812;50.942;3.644;2022-07-23T12:38:13;101882.25;;;28.34;52.20
52949;BME280;38812;50.942;3.644;2022-07-23T12:40:44;101888.00;;;28.74;52.38
52949;BME280;38812;50.942;3.644;2022-07-23T12:43:18;101879.78;;;29.29;51.31
52949;BME280;38812;50.942;3.644;2022-07-23T12:45:46;101868.53;;;29.77;50.71
52949;BME280;38812;50.942;3.644;2022-07-23T12:48:29;101874.69;;;30.00;49.20
52949;BME280;38812;50.942;3.644;2022-07-23T12:50:59;101877.84;;;30.26;49.21
52949;BME280;38812;50.942;3.644;2022-07-23T12:53:26;101872.13;;;29.66;50.72
52949;BME280;38812;50.942;3.644;2022-07-23T13:01:22;101871.72;;;29.50;50.55
52949;BME280;38812;50.942;3.644;2022-07-23T13:04:29;101868.56;;;29.45;51.78
52949;BME280;38812;50.942;3.644;2022-07-23T13:06:58;101865.56;;;30.01;50.19
52949;BME280;38812;50.942;3.644;2022-07-23T13:09:29;101870.03;;;29.91;49.40
52949;BME280;38812;50.942;3.644;2022-07-23T13:11:56;101841.91;;;29.29;50.64
52949;BME280;38812;50.942;3.644;2022-07-23T13:14:22;101829.94;;;29.85;48.08
52949;BME280;38812;50.942;3.644;2022-07-23T13:16:49;101872.78;;;30.42;49.61
52949;BME280;38812;50.942;3.644;2022-07-23T13:19:15;101856.63;;;30.31;49.51
52949;BME280;38812;50.942;3.644;2022-07-23T13:21:41;101871.69;;;29.82;48.80
52949;BME280;38812;50.942;3.644;2022-07-23T13:24:08;101869.38;;;30.19;49.83
52949;BME280;38812;50.942;3.644;2022-07-23T13:26:34;101873.91;;;30.70;48.46
52949;BME280;38812;50.942;3.644;2022-07-23T13:28:59;101852.59;;;30.25;48.22
52949;BME280;38812;50.942;3.644;2022-07-23T13:31:24;101864.22;;;29.75;48.84